createdAt,value
2015-08-14T00:00:00.406Z,74220
2015-08-14T00:00:12.781Z,74220
2015-08-14T00:00:25.156Z,74221
2015-08-14T00:00:37.534Z,74218
2015-08-14T00:00:49.909Z,74221
2015-08-14T00:01:02.284Z,74217
2015-08-14T00:01:14.659Z,74221
2015-08-14T00:01:27.034Z,74216
2015-08-14T00:01:39.411Z,74212
2015-08-14T00:01:51.801Z,74213
2015-08-14T00:02:04.161Z,74211
2015-08-14T00:02:16.551Z,74217
2015-08-14T00:02:28.926Z,74214
2015-08-14T00:02:41.302Z,74218
2015-08-14T00:02:53.677Z,74219
2015-08-14T00:03:06.052Z,74211
2015-08-14T00:03:18.427Z,74218
2015-08-14T00:03:30.818Z,74213
2015-08-14T00:03:43.195Z,74218
2015-08-14T00:03:55.570Z,74220
2015-08-14T00:04:07.945Z,74213
2015-08-14T00:04:20.320Z,74214
2015-08-14T00:04:32.695Z,74213
2015-08-14T00:04:45.087Z,74211
2015-08-14T00:04:56.744Z,74212
2015-08-14T00:05:09.134Z,74210
2015-08-14T00:05:21.509Z,74213
2015-08-14T00:05:33.884Z,74209
2015-08-14T00:05:46.261Z,74211
2015-08-14T00:05:58.636Z,74214
2015-08-14T00:06:11.027Z,74211
2015-08-14T00:06:23.418Z,74214
2015-08-14T00:06:35.808Z,74215
2015-08-14T00:06:48.201Z,74215
2015-08-14T00:07:00.576Z,74209
2015-08-14T00:07:12.982Z,74213
2015-08-14T00:07:25.388Z,74214
2015-08-14T00:07:37.795Z,74214
2015-08-14T00:07:50.218Z,74208
2015-08-14T00:08:02.609Z,74213
2015-08-14T00:08:15.015Z,74211
2015-08-14T00:08:27.422Z,74217
2015-08-14T00:08:39.828Z,74209
2015-08-14T00:08:52.236Z,74212
2015-08-14T00:09:03.924Z,74213
2015-08-14T00:09:16.345Z,74215
2015-08-14T00:09:28.767Z,74210
2015-08-14T00:09:41.142Z,74217
2015-08-14T00:09:53.519Z,74211
2015-08-14T00:10:05.894Z,74210
2015-08-14T00:10:18.269Z,74212
2015-08-14T00:10:30.644Z,74205
2015-08-14T00:10:43.019Z,74212
2015-08-14T00:10:55.396Z,74205
2015-08-14T00:11:07.787Z,74207
2015-08-14T00:11:20.146Z,74220
2015-08-14T00:11:32.521Z,74209
2015-08-14T00:11:44.896Z,74211
2015-08-14T00:11:57.273Z,74212
2015-08-14T00:12:09.648Z,74210
2015-08-14T00:12:22.023Z,74216
2015-08-14T00:12:34.414Z,74209
2015-08-14T00:12:46.789Z,74200
2015-08-14T00:12:59.166Z,74211
2015-08-14T00:13:11.541Z,74203
2015-08-14T00:13:23.916Z,74201
2015-08-14T00:13:36.291Z,74214
2015-08-14T00:13:48.666Z,74199
2015-08-14T00:14:01.059Z,74201
2015-08-14T00:14:13.418Z,74210
2015-08-14T00:14:25.809Z,74207
2015-08-14T00:14:38.184Z,74205
2015-08-14T00:14:50.543Z,74210
2015-08-14T00:15:02.920Z,74211
2015-08-14T00:15:15.311Z,74207
2015-08-14T00:15:27.701Z,74209
2015-08-14T00:15:40.092Z,74206
2015-08-14T00:15:52.498Z,74200
2015-08-14T00:16:04.891Z,74204
2015-08-14T00:16:17.344Z,74203
2015-08-14T00:16:29.781Z,74201
2015-08-14T00:16:42.250Z,74207
2015-08-14T00:16:54.688Z,74206
2015-08-14T00:17:07.080Z,74204
2015-08-14T00:17:19.486Z,74202
2015-08-14T00:17:31.893Z,74206
2015-08-14T00:17:44.299Z,74207
2015-08-14T00:17:56.752Z,74208
2015-08-14T00:18:08.504Z,74204
2015-08-14T00:18:20.613Z,74206
2015-08-14T00:18:33.035Z,74209
2015-08-14T00:18:46.832Z,74203
2015-08-14T00:18:59.145Z,74211
2015-08-14T00:19:11.522Z,74211
2015-08-14T00:19:23.897Z,74207
2015-08-14T00:19:36.287Z,74215
2015-08-14T00:19:48.694Z,74207
2015-08-14T00:20:01.131Z,74214
2015-08-14T00:20:13.571Z,74211
2015-08-14T00:20:26.586Z,74211
2015-08-14T00:20:39.039Z,74210
2015-08-14T00:20:51.446Z,74212
2015-08-14T00:21:03.852Z,74213
2015-08-14T00:21:17.323Z,74216
2015-08-14T00:21:30.948Z,74212
2015-08-14T00:21:43.948Z,74204
2015-08-14T00:21:56.588Z,74208
2015-08-14T00:22:09.184Z,74212
2015-08-14T00:22:21.559Z,74211
2015-08-14T00:22:33.934Z,74204
2015-08-14T00:22:46.371Z,74206
2015-08-14T00:22:58.746Z,74215
2015-08-14T00:23:11.122Z,74205
2015-08-14T00:23:23.497Z,74213
2015-08-14T00:23:36.076Z,74206
2015-08-14T00:23:48.451Z,74210
2015-08-14T00:24:00.826Z,74214
2015-08-14T00:24:13.203Z,74210
2015-08-14T00:24:25.578Z,74211
2015-08-14T00:24:37.953Z,74216
2015-08-14T00:24:50.328Z,74220
2015-08-14T00:25:03.437Z,74216
2015-08-14T00:25:16.049Z,74212
2015-08-14T00:25:28.393Z,74207
2015-08-14T00:25:40.815Z,74210
2015-08-14T00:25:53.299Z,74205
2015-08-14T00:26:05.752Z,74208
2015-08-14T00:26:18.191Z,74205
2015-08-14T00:26:30.972Z,74210
2015-08-14T00:26:43.238Z,74207
2015-08-14T00:26:55.503Z,74210
2015-08-14T00:27:07.941Z,74207
2015-08-14T00:27:20.366Z,74214
2015-08-14T00:27:32.772Z,74212
2015-08-14T00:27:45.381Z,74200
2015-08-14T00:27:57.819Z,74203
2015-08-14T00:28:10.225Z,74200
2015-08-14T00:28:22.649Z,74202
2015-08-14T00:28:34.977Z,74202
2015-08-14T00:28:47.368Z,74199
2015-08-14T00:28:59.743Z,74209
2015-08-14T00:29:12.133Z,74205
2015-08-14T00:29:24.509Z,74207
2015-08-14T00:29:36.181Z,74204
2015-08-14T00:29:48.556Z,74202
2015-08-14T00:30:00.947Z,74203
2015-08-14T00:30:13.322Z,74204
2015-08-14T00:30:25.700Z,74200
2015-08-14T00:30:38.075Z,74199
2015-08-14T00:30:50.450Z,74199
2015-08-14T00:31:02.825Z,74197
2015-08-14T00:31:15.200Z,74196
2015-08-14T00:31:27.577Z,74202
2015-08-14T00:31:39.952Z,74195
2015-08-14T00:31:52.186Z,74196
2015-08-14T00:32:04.561Z,74199
2015-08-14T00:32:16.936Z,74200
2015-08-14T00:32:29.329Z,74201
2015-08-14T00:32:41.720Z,74202
2015-08-14T00:32:54.095Z,74201
2015-08-14T00:33:06.470Z,74199
2015-08-14T00:33:18.876Z,74199
2015-08-14T00:33:31.252Z,74195
2015-08-14T00:33:43.627Z,74197
2015-08-14T00:33:56.002Z,74199
2015-08-14T00:34:08.377Z,74195
2015-08-14T00:34:20.752Z,74198
2015-08-14T00:34:33.129Z,74193
2015-08-14T00:34:45.519Z,74198
2015-08-14T00:34:57.894Z,74195
2015-08-14T00:35:10.285Z,74196
2015-08-14T00:35:22.676Z,74191
2015-08-14T00:35:35.053Z,74191
2015-08-14T00:35:47.443Z,74195
2015-08-14T00:35:59.850Z,74195
2015-08-14T00:36:12.256Z,74201
2015-08-14T00:36:24.662Z,74197
2015-08-14T00:36:37.055Z,74194
2015-08-14T00:36:49.445Z,74192
2015-08-14T00:37:01.852Z,74193
2015-08-14T00:37:14.242Z,74193
2015-08-14T00:37:26.727Z,74189
2015-08-14T00:37:39.025Z,74189
2015-08-14T00:37:51.479Z,74192
2015-08-14T00:38:03.900Z,74193
2015-08-14T00:38:16.119Z,74189
2015-08-14T00:38:28.494Z,74186
2015-08-14T00:38:40.872Z,74191
2015-08-14T00:38:53.247Z,74186
2015-08-14T00:39:05.622Z,74181
2015-08-14T00:39:17.997Z,74181
2015-08-14T00:39:30.372Z,74182
2015-08-14T00:39:42.748Z,74183
2015-08-14T00:39:55.123Z,74185
2015-08-14T00:40:07.498Z,74187
2015-08-14T00:40:19.186Z,74185
2015-08-14T00:40:31.561Z,74187
2015-08-14T00:40:43.938Z,74186
2015-08-14T00:40:56.328Z,74186
2015-08-14T00:41:08.563Z,74183
2015-08-14T00:41:20.938Z,74186
2015-08-14T00:41:33.313Z,74183
2015-08-14T00:41:45.706Z,74184
2015-08-14T00:41:58.081Z,74185
2015-08-14T00:42:10.456Z,74181
2015-08-14T00:42:22.831Z,74186
2015-08-14T00:42:35.269Z,74180
2015-08-14T00:42:47.645Z,74182
2015-08-14T00:43:00.035Z,74186
2015-08-14T00:43:12.254Z,74181
2015-08-14T00:43:24.629Z,74182
2015-08-14T00:43:37.004Z,74179
2015-08-14T00:43:49.397Z,74182
2015-08-14T00:44:01.787Z,74183
2015-08-14T00:44:14.178Z,74189
2015-08-14T00:44:26.569Z,74183
2015-08-14T00:44:38.959Z,74177
2015-08-14T00:44:51.337Z,74181
2015-08-14T00:45:03.728Z,74182
2015-08-14T00:45:16.119Z,74184
2015-08-14T00:45:28.540Z,74183
2015-08-14T00:45:40.947Z,74183
2015-08-14T00:45:53.355Z,74182
2015-08-14T00:46:05.746Z,74184
2015-08-14T00:46:18.167Z,74182
2015-08-14T00:46:30.574Z,74180
2015-08-14T00:46:42.980Z,74182
2015-08-14T00:46:55.418Z,74178
2015-08-14T00:47:07.793Z,74181
2015-08-14T00:47:19.481Z,74185
2015-08-14T00:47:31.840Z,74181
2015-08-14T00:47:43.512Z,74183
2015-08-14T00:47:55.889Z,74175
2015-08-14T00:48:08.264Z,74182
2015-08-14T00:48:20.639Z,74181
2015-08-14T00:48:33.014Z,74181
2015-08-14T00:48:45.405Z,74179
2015-08-14T00:48:57.063Z,74181
2015-08-14T00:49:08.735Z,74181
2015-08-14T00:49:21.094Z,74181
2015-08-14T00:49:33.485Z,74185
2015-08-14T00:49:45.860Z,74180
2015-08-14T00:49:58.237Z,74183
2015-08-14T00:50:10.628Z,74180
2015-08-14T00:50:23.003Z,74183
2015-08-14T00:50:35.237Z,74180
2015-08-14T00:50:47.612Z,74174
2015-08-14T00:50:59.286Z,74176
2015-08-14T00:51:10.958Z,74178
2015-08-14T00:51:23.333Z,74180
2015-08-14T00:51:35.723Z,74174
2015-08-14T00:51:48.114Z,74177
2015-08-14T00:52:00.491Z,74176
2015-08-14T00:52:12.866Z,74181
2015-08-14T00:52:25.257Z,74177
2015-08-14T00:52:37.647Z,74181
2015-08-14T00:52:49.335Z,74177
2015-08-14T00:53:01.634Z,74176
2015-08-14T00:53:14.040Z,74174
2015-08-14T00:53:26.524Z,74179
2015-08-14T00:53:38.930Z,74175
2015-08-14T00:53:51.337Z,74179
2015-08-14T00:54:03.745Z,74173
2015-08-14T00:54:16.151Z,74178
2015-08-14T00:54:28.573Z,74176
2015-08-14T00:54:40.964Z,74174
2015-08-14T00:54:53.339Z,74177
2015-08-14T00:55:05.559Z,74178
2015-08-14T00:55:17.934Z,74175
2015-08-14T00:55:30.153Z,74172
2015-08-14T00:55:42.528Z,74178
2015-08-14T00:55:54.903Z,74177
2015-08-14T00:56:07.280Z,74179
2015-08-14T00:56:19.671Z,74179
2015-08-14T00:56:32.046Z,74181
2015-08-14T00:56:44.421Z,74181
2015-08-14T00:56:56.796Z,74181
2015-08-14T00:57:09.173Z,74176
2015-08-14T00:57:21.392Z,74174
2015-08-14T00:57:33.798Z,74180
2015-08-14T00:57:45.485Z,74178
2015-08-14T00:57:57.860Z,74177
2015-08-14T00:58:10.253Z,74177
2015-08-14T00:58:22.628Z,74180
2015-08-14T00:58:35.003Z,74181
2015-08-14T00:58:47.378Z,74177
2015-08-14T00:58:59.753Z,74180
2015-08-14T00:59:12.146Z,74178
2015-08-14T00:59:24.521Z,74180
2015-08-14T00:59:37.146Z,74179
2015-08-14T00:59:49.521Z,74179
2015-08-14T01:00:01.896Z,74182
2015-08-14T01:00:14.116Z,74182
2015-08-14T01:00:26.491Z,74179
2015-08-14T01:00:38.882Z,74176
2015-08-14T01:00:51.273Z,74176
2015-08-14T01:01:03.648Z,74180
2015-08-14T01:01:16.040Z,74176
2015-08-14T01:01:28.431Z,74178
2015-08-14T01:01:40.821Z,74176
2015-08-14T01:01:53.243Z,74176
2015-08-14T01:02:05.634Z,74181
2015-08-14T01:02:18.041Z,74175
2015-08-14T01:02:30.447Z,74179
2015-08-14T01:02:42.838Z,74177
2015-08-14T01:02:55.244Z,74178
2015-08-14T01:03:07.651Z,74177
2015-08-14T01:03:19.935Z,74183
2015-08-14T01:03:32.325Z,74170
2015-08-14T01:03:44.575Z,74179
2015-08-14T01:03:56.982Z,74173
2015-08-14T01:04:09.419Z,74174
2015-08-14T01:04:21.796Z,74173
2015-08-14T01:04:34.171Z,74175
2015-08-14T01:04:46.546Z,74177
2015-08-14T01:04:58.921Z,74171
2015-08-14T01:05:11.296Z,74174
2015-08-14T01:05:23.673Z,74171
2015-08-14T01:05:36.048Z,74180
2015-08-14T01:05:48.423Z,74168
2015-08-14T01:06:00.814Z,74171
2015-08-14T01:06:13.189Z,74169
2015-08-14T01:06:25.566Z,74172
2015-08-14T01:06:37.956Z,74172
2015-08-14T01:06:50.175Z,74177
2015-08-14T01:07:02.550Z,74170
2015-08-14T01:07:14.941Z,74172
2015-08-14T01:07:27.318Z,74175
2015-08-14T01:07:39.693Z,74173
2015-08-14T01:07:52.068Z,74176
2015-08-14T01:08:04.443Z,74177
2015-08-14T01:08:16.818Z,74166
2015-08-14T01:08:29.038Z,74177
2015-08-14T01:08:41.413Z,74170
2015-08-14T01:08:53.803Z,74169
2015-08-14T01:09:06.178Z,74173
2015-08-14T01:09:18.553Z,74166
2015-08-14T01:09:30.931Z,74172
2015-08-14T01:09:43.306Z,74167
2015-08-14T01:09:55.681Z,74169
2015-08-14T01:10:08.056Z,74167
2015-08-14T01:10:20.447Z,74165
2015-08-14T01:10:32.120Z,74168
2015-08-14T01:10:44.495Z,74171
2015-08-14T01:10:56.885Z,74172
2015-08-14T01:11:09.276Z,74171
2015-08-14T01:11:21.667Z,74165
2015-08-14T01:11:34.076Z,74170
2015-08-14T01:11:46.498Z,74165
2015-08-14T01:11:58.904Z,74171
2015-08-14T01:12:11.326Z,74172
2015-08-14T01:12:23.716Z,74169
2015-08-14T01:12:36.124Z,74163
2015-08-14T01:12:48.530Z,74168
2015-08-14T01:13:00.952Z,74169
2015-08-14T01:13:13.358Z,74162
2015-08-14T01:13:25.764Z,74167
2015-08-14T01:13:38.158Z,74172
2015-08-14T01:13:50.580Z,74163
2015-08-14T01:14:02.955Z,74158
2015-08-14T01:14:15.189Z,74165
2015-08-14T01:14:27.564Z,74168
2015-08-14T01:14:39.940Z,74165
2015-08-14T01:14:52.315Z,74160
2015-08-14T01:15:04.706Z,74162
2015-08-14T01:15:17.081Z,74168
2015-08-14T01:15:29.471Z,74161
2015-08-14T01:15:41.848Z,74172
2015-08-14T01:15:54.223Z,74159
2015-08-14T01:16:06.614Z,74170
2015-08-14T01:16:18.989Z,74163
2015-08-14T01:16:31.364Z,74168
2015-08-14T01:16:43.757Z,74166
2015-08-14T01:16:56.147Z,74165
2015-08-14T01:17:08.522Z,74161
2015-08-14T01:17:20.897Z,74162
2015-08-14T01:17:33.272Z,74172
2015-08-14T01:17:45.666Z,74165
2015-08-14T01:17:58.041Z,74164
2015-08-14T01:18:10.416Z,74175
2015-08-14T01:18:22.807Z,74166
2015-08-14T01:18:35.182Z,74169
2015-08-14T01:18:47.558Z,74174
2015-08-14T01:18:59.214Z,74167
2015-08-14T01:19:11.604Z,74165
2015-08-14T01:19:23.964Z,74164
2015-08-14T01:19:36.339Z,74159
2015-08-14T01:19:48.701Z,74163
2015-08-14T01:20:01.076Z,74168
2015-08-14T01:20:13.467Z,74163
2015-08-14T01:20:25.842Z,74156
2015-08-14T01:20:38.232Z,74157
2015-08-14T01:20:50.625Z,74168
2015-08-14T01:21:03.031Z,74157
2015-08-14T01:21:15.438Z,74164
2015-08-14T01:21:27.844Z,74157
2015-08-14T01:21:40.234Z,74157
2015-08-14T01:21:52.642Z,74163
2015-08-14T01:22:05.048Z,74156
2015-08-14T01:22:17.439Z,74167
2015-08-14T01:22:29.829Z,74166
2015-08-14T01:22:42.267Z,74165
2015-08-14T01:22:54.660Z,74166
2015-08-14T01:23:07.098Z,74164
2015-08-14T01:23:19.473Z,74167
2015-08-14T01:23:31.832Z,74170
2015-08-14T01:23:43.504Z,74160
2015-08-14T01:23:55.880Z,74163
2015-08-14T01:24:08.255Z,74166
2015-08-14T01:24:20.474Z,74160
2015-08-14T01:24:32.849Z,74161
2015-08-14T01:24:45.224Z,74163
2015-08-14T01:24:56.898Z,74159
2015-08-14T01:25:09.288Z,74169
2015-08-14T01:25:21.663Z,74161
2015-08-14T01:25:34.038Z,74161
2015-08-14T01:25:46.413Z,74162
2015-08-14T01:25:58.791Z,74162
2015-08-14T01:26:11.182Z,74168
2015-08-14T01:26:23.557Z,74166
2015-08-14T01:26:35.932Z,74162
2015-08-14T01:26:48.307Z,74161
2015-08-14T01:27:00.683Z,74170
2015-08-14T01:27:13.058Z,74163
2015-08-14T01:27:25.433Z,74158
2015-08-14T01:27:37.808Z,74166
2015-08-14T01:27:50.199Z,74169
2015-08-14T01:28:02.576Z,74158
2015-08-14T01:28:14.951Z,74158
2015-08-14T01:28:27.326Z,74168
2015-08-14T01:28:39.716Z,74158
2015-08-14T01:28:52.091Z,74163
2015-08-14T01:29:04.468Z,74160
2015-08-14T01:29:16.859Z,74157
2015-08-14T01:29:29.234Z,74170
2015-08-14T01:29:41.624Z,74160
2015-08-14T01:29:53.999Z,74161
2015-08-14T01:30:06.392Z,74158
2015-08-14T01:30:18.626Z,74157
2015-08-14T01:30:31.033Z,74160
2015-08-14T01:30:43.439Z,74163
2015-08-14T01:30:55.705Z,74162
2015-08-14T01:31:08.097Z,74153
2015-08-14T01:31:20.488Z,74161
2015-08-14T01:31:32.894Z,74159
2015-08-14T01:31:45.285Z,74165
2015-08-14T01:31:57.707Z,74162
2015-08-14T01:32:10.115Z,74159
2015-08-14T01:32:22.505Z,74161
2015-08-14T01:32:34.896Z,74162
2015-08-14T01:32:47.302Z,74162
2015-08-14T01:32:59.677Z,74159
2015-08-14T01:33:12.055Z,74158
2015-08-14T01:33:24.430Z,74161
2015-08-14T01:33:36.805Z,74157
2015-08-14T01:33:49.180Z,74160
2015-08-14T01:34:01.555Z,74159
2015-08-14T01:34:13.932Z,74160
2015-08-14T01:34:26.323Z,74164
2015-08-14T01:34:38.698Z,74159
2015-08-14T01:34:51.073Z,74162
2015-08-14T01:35:03.448Z,74157
2015-08-14T01:35:15.808Z,74165
2015-08-14T01:35:27.480Z,74158
2015-08-14T01:35:39.855Z,74155
2015-08-14T01:35:52.246Z,74157
2015-08-14T01:36:04.621Z,74154
2015-08-14T01:36:16.998Z,74157
2015-08-14T01:36:29.373Z,74156
2015-08-14T01:36:41.748Z,74156
2015-08-14T01:36:54.138Z,74156
2015-08-14T01:37:06.513Z,74158
2015-08-14T01:37:18.906Z,74155
2015-08-14T01:37:31.281Z,74160
2015-08-14T01:37:43.656Z,74164
2015-08-14T01:37:56.047Z,74158
2015-08-14T01:38:08.422Z,74160
2015-08-14T01:38:20.799Z,74160
2015-08-14T01:38:33.174Z,74161
2015-08-14T01:38:45.564Z,74157
2015-08-14T01:38:57.955Z,74158
2015-08-14T01:39:09.627Z,74156
2015-08-14T01:39:22.019Z,74158
2015-08-14T01:39:34.426Z,74154
2015-08-14T01:39:46.816Z,74156
2015-08-14T01:39:59.223Z,74153
2015-08-14T01:40:11.629Z,74150
2015-08-14T01:40:24.036Z,74154
2015-08-14T01:40:36.458Z,74149
2015-08-14T01:40:48.864Z,74157
2015-08-14T01:41:01.270Z,74150
2015-08-14T01:41:13.661Z,74154
2015-08-14T01:41:26.070Z,74152
2015-08-14T01:41:38.492Z,74155
2015-08-14T01:41:50.898Z,74151
2015-08-14T01:42:03.148Z,74155
2015-08-14T01:42:15.555Z,74150
2015-08-14T01:42:27.932Z,74156
2015-08-14T01:42:40.291Z,74157
2015-08-14T01:42:52.666Z,74156
2015-08-14T01:43:05.041Z,74156
2015-08-14T01:43:17.432Z,74155
2015-08-14T01:43:29.809Z,74156
2015-08-14T01:43:42.184Z,74153
2015-08-14T01:43:54.559Z,74154
2015-08-14T01:44:06.934Z,74151
2015-08-14T01:44:19.324Z,74157
2015-08-14T01:44:31.701Z,74153
2015-08-14T01:44:44.076Z,74156
2015-08-14T01:44:56.451Z,74157
2015-08-14T01:45:08.826Z,74157
2015-08-14T01:45:21.217Z,74158
2015-08-14T01:45:33.594Z,74154
2015-08-14T01:45:45.969Z,74154
2015-08-14T01:45:58.344Z,74151
2015-08-14T01:46:10.735Z,74154
2015-08-14T01:46:23.110Z,74154
2015-08-14T01:46:35.486Z,74152
2015-08-14T01:46:47.876Z,74155
2015-08-14T01:47:00.251Z,74157
2015-08-14T01:47:12.611Z,74154
2015-08-14T01:47:24.986Z,74153
2015-08-14T01:47:37.363Z,74153
2015-08-14T01:47:49.738Z,74151
2015-08-14T01:48:02.113Z,74152
2015-08-14T01:48:14.503Z,74147
2015-08-14T01:48:26.878Z,74152
2015-08-14T01:48:39.272Z,74147
2015-08-14T01:48:50.944Z,74151
2015-08-14T01:49:03.334Z,74145
2015-08-14T01:49:15.709Z,74142
2015-08-14T01:49:28.116Z,74147
2015-08-14T01:49:40.571Z,74146
2015-08-14T01:49:52.961Z,74146
2015-08-14T01:50:05.383Z,74144
2015-08-14T01:50:17.774Z,74147
2015-08-14T01:50:30.180Z,74147
2015-08-14T01:50:42.588Z,74148
2015-08-14T01:50:54.979Z,74147
2015-08-14T01:51:07.401Z,74152
2015-08-14T01:51:19.807Z,74149
2015-08-14T01:51:32.213Z,74147
2015-08-14T01:51:44.637Z,74148
2015-08-14T01:51:57.012Z,74142
2015-08-14T01:52:09.387Z,74146
2015-08-14T01:52:21.762Z,74154
2015-08-14T01:52:34.137Z,74153
2015-08-14T01:52:46.514Z,74147
2015-08-14T01:52:58.889Z,74147
2015-08-14T01:53:11.264Z,74147
2015-08-14T01:53:22.936Z,74146
2015-08-14T01:53:35.327Z,74147
2015-08-14T01:53:47.719Z,74152
2015-08-14T01:54:00.110Z,74148
2015-08-14T01:54:12.485Z,74148
2015-08-14T01:54:24.860Z,74149
2015-08-14T01:54:37.235Z,74146
2015-08-14T01:54:48.893Z,74146
2015-08-14T01:55:01.268Z,74147
2015-08-14T01:55:13.643Z,74148
2015-08-14T01:55:26.018Z,74148
2015-08-14T01:55:38.393Z,74146
2015-08-14T01:55:50.770Z,74145
2015-08-14T01:56:03.145Z,74145
2015-08-14T01:56:15.520Z,74141
2015-08-14T01:56:27.911Z,74140
2015-08-14T01:56:40.270Z,74144
2015-08-14T01:56:52.662Z,74135
2015-08-14T01:57:05.037Z,74137
2015-08-14T01:57:17.412Z,74137
2015-08-14T01:57:29.802Z,74140
2015-08-14T01:57:42.193Z,74143
2015-08-14T01:57:54.446Z,74138
2015-08-14T01:58:06.821Z,74137
2015-08-14T01:58:19.212Z,74138
2015-08-14T01:58:31.602Z,74141
2015-08-14T01:58:43.993Z,74144
2015-08-14T01:58:56.244Z,74141
2015-08-14T01:59:08.650Z,74139
2015-08-14T01:59:21.056Z,74141
2015-08-14T01:59:33.478Z,74141
2015-08-14T01:59:45.869Z,74143
2015-08-14T01:59:58.278Z,74139
2015-08-14T02:00:10.684Z,74138
2015-08-14T02:00:23.091Z,74142
2015-08-14T02:00:35.497Z,74138
2015-08-14T02:00:47.903Z,74139
2015-08-14T02:01:00.295Z,74135
2015-08-14T02:01:12.701Z,74137
2015-08-14T02:01:25.076Z,74144
2015-08-14T02:01:37.435Z,74132
2015-08-14T02:01:49.810Z,74138
2015-08-14T02:02:02.187Z,74133
2015-08-14T02:02:14.562Z,74142
2015-08-14T02:02:26.937Z,74139
2015-08-14T02:02:39.312Z,74142
2015-08-14T02:02:51.687Z,74136
2015-08-14T02:03:04.081Z,74141
2015-08-14T02:03:16.456Z,74145
2015-08-14T02:03:28.112Z,74144
2015-08-14T02:03:40.487Z,74144
2015-08-14T02:03:52.862Z,74140
2015-08-14T02:04:05.239Z,74137
2015-08-14T02:04:17.630Z,74139
2015-08-14T02:04:30.005Z,74140
2015-08-14T02:04:42.380Z,74141
2015-08-14T02:04:54.052Z,74137
2015-08-14T02:05:06.491Z,74142
2015-08-14T02:05:18.866Z,74141
2015-08-14T02:05:31.226Z,74141
2015-08-14T02:05:43.616Z,74143
2015-08-14T02:05:55.991Z,74139
2015-08-14T02:06:08.368Z,74137
2015-08-14T02:06:20.743Z,74139
2015-08-14T02:06:33.118Z,74136
2015-08-14T02:06:45.493Z,74140
2015-08-14T02:06:57.868Z,74141
2015-08-14T02:07:10.245Z,74140
2015-08-14T02:07:22.652Z,74138
2015-08-14T02:07:35.027Z,74139
2015-08-14T02:07:47.417Z,74136
2015-08-14T02:07:59.808Z,74139
2015-08-14T02:08:12.184Z,74131
2015-08-14T02:08:24.574Z,74137
2015-08-14T02:08:36.981Z,74139
2015-08-14T02:08:49.387Z,74135
2015-08-14T02:09:01.809Z,74142
2015-08-14T02:09:14.217Z,74139
2015-08-14T02:09:26.608Z,74139
2015-08-14T02:09:39.014Z,74134
2015-08-14T02:09:51.420Z,74136
2015-08-14T02:10:03.842Z,74139
2015-08-14T02:10:16.250Z,74140
2015-08-14T02:10:28.750Z,74139
2015-08-14T02:10:41.157Z,74139
2015-08-14T02:10:53.563Z,74133
2015-08-14T02:11:05.938Z,74134
2015-08-14T02:11:18.315Z,74133
2015-08-14T02:11:30.690Z,74134
2015-08-14T02:11:43.065Z,74132
2015-08-14T02:11:55.440Z,74139
2015-08-14T02:12:07.815Z,74135
2015-08-14T02:12:20.192Z,74138
2015-08-14T02:12:32.567Z,74141
2015-08-14T02:12:44.957Z,74138
2015-08-14T02:12:57.332Z,74137
2015-08-14T02:13:09.707Z,74139
2015-08-14T02:13:22.084Z,74137
2015-08-14T02:13:34.475Z,74130
2015-08-14T02:13:46.850Z,74136
2015-08-14T02:13:59.241Z,74138
2015-08-14T02:14:10.897Z,74137
2015-08-14T02:14:23.274Z,74137
2015-08-14T02:14:35.649Z,74136
2015-08-14T02:14:48.024Z,74140
2015-08-14T02:15:00.399Z,74135
2015-08-14T02:15:12.774Z,74135
2015-08-14T02:15:25.167Z,74138
2015-08-14T02:15:37.542Z,74132
2015-08-14T02:15:49.917Z,74137
2015-08-14T02:16:02.292Z,74136
2015-08-14T02:16:14.667Z,74136
2015-08-14T02:16:27.044Z,74135
2015-08-14T02:16:39.419Z,74132
2015-08-14T02:16:51.809Z,74135
2015-08-14T02:17:04.184Z,74134
2015-08-14T02:17:16.575Z,74131
2015-08-14T02:17:28.967Z,74133
2015-08-14T02:17:41.342Z,74135
2015-08-14T02:17:53.764Z,74134
2015-08-14T02:18:06.171Z,74137
2015-08-14T02:18:18.592Z,74132
2015-08-14T02:18:31.001Z,74137
2015-08-14T02:18:43.407Z,74140
2015-08-14T02:18:55.813Z,74141
2015-08-14T02:19:08.219Z,74136
2015-08-14T02:19:20.626Z,74132
2015-08-14T02:19:33.051Z,74134
2015-08-14T02:19:45.457Z,74139
2015-08-14T02:19:57.863Z,74141
2015-08-14T02:20:10.254Z,74141
2015-08-14T02:20:22.629Z,74136
2015-08-14T02:20:34.286Z,74140
2015-08-14T02:20:46.661Z,74140
2015-08-14T02:20:58.317Z,74140
2015-08-14T02:21:10.692Z,74141
2015-08-14T02:21:23.067Z,74144
2015-08-14T02:21:35.444Z,74136
2015-08-14T02:21:47.866Z,74135
2015-08-14T02:22:00.241Z,74140
2015-08-14T02:22:12.616Z,74139
2015-08-14T02:22:24.991Z,74145
2015-08-14T02:22:37.368Z,74143
2015-08-14T02:22:49.759Z,74141
2015-08-14T02:23:02.134Z,74136
2015-08-14T02:23:14.524Z,74136
2015-08-14T02:23:26.899Z,74135
2015-08-14T02:23:39.276Z,74138
2015-08-14T02:23:51.651Z,74138
2015-08-14T02:24:04.026Z,74134
2015-08-14T02:24:16.401Z,74134
2015-08-14T02:24:28.776Z,74134
2015-08-14T02:24:41.169Z,74130
2015-08-14T02:24:53.528Z,74131
2015-08-14T02:25:05.903Z,74133
2015-08-14T02:25:18.278Z,74133
2015-08-14T02:25:30.653Z,74134
2015-08-14T02:25:43.030Z,74133
2015-08-14T02:25:55.405Z,74128
2015-08-14T02:26:07.796Z,74130
2015-08-14T02:26:20.187Z,74130
2015-08-14T02:26:32.577Z,74132
2015-08-14T02:26:44.970Z,74131
2015-08-14T02:26:57.360Z,74129
2015-08-14T02:27:09.751Z,74131
2015-08-14T02:27:21.439Z,74130
2015-08-14T02:27:33.845Z,74127
2015-08-14T02:27:46.252Z,74128
2015-08-14T02:27:58.658Z,74132
2015-08-14T02:28:11.065Z,74124
2015-08-14T02:28:23.486Z,74124
2015-08-14T02:28:35.877Z,74130
2015-08-14T02:28:48.302Z,74126
2015-08-14T02:29:00.708Z,74133
2015-08-14T02:29:13.114Z,74125
2015-08-14T02:29:25.536Z,74128
2015-08-14T02:29:37.927Z,74133
2015-08-14T02:29:50.304Z,74134
2015-08-14T02:30:02.679Z,74132
2015-08-14T02:30:15.054Z,74131
2015-08-14T02:30:27.429Z,74129
2015-08-14T02:30:39.804Z,74129
2015-08-14T02:30:52.181Z,74129
2015-08-14T02:31:03.837Z,74126
2015-08-14T02:31:16.228Z,74130
2015-08-14T02:31:28.618Z,74128
2015-08-14T02:31:40.978Z,74129
2015-08-14T02:31:53.355Z,74126
2015-08-14T02:32:05.730Z,74123
2015-08-14T02:32:18.105Z,74125
2015-08-14T02:32:30.480Z,74125
2015-08-14T02:32:42.870Z,74121
2015-08-14T02:32:55.246Z,74128
2015-08-14T02:33:07.465Z,74129
2015-08-14T02:33:19.840Z,74129
2015-08-14T02:33:32.215Z,74129
2015-08-14T02:33:44.590Z,74121
2015-08-14T02:33:56.968Z,74123
2015-08-14T02:34:09.390Z,74124
2015-08-14T02:34:21.765Z,74124
2015-08-14T02:34:34.140Z,74124
2015-08-14T02:34:46.515Z,74128
2015-08-14T02:34:58.908Z,74131
2015-08-14T02:35:11.283Z,74131
2015-08-14T02:35:23.658Z,74129
2015-08-14T02:35:36.048Z,74128
2015-08-14T02:35:48.423Z,74130
2015-08-14T02:36:00.816Z,74128
2015-08-14T02:36:13.207Z,74125
2015-08-14T02:36:25.582Z,74126
2015-08-14T02:36:37.972Z,74123
2015-08-14T02:36:50.378Z,74129
2015-08-14T02:37:02.083Z,74125
2015-08-14T02:37:14.473Z,74127
2015-08-14T02:37:26.879Z,74124
2015-08-14T02:37:39.270Z,74123
2015-08-14T02:37:51.676Z,74131
2015-08-14T02:38:04.086Z,74127
2015-08-14T02:38:16.507Z,74128
2015-08-14T02:38:28.757Z,74134
2015-08-14T02:38:41.164Z,74135
2015-08-14T02:38:53.586Z,74127
2015-08-14T02:39:05.962Z,74123